createdAt,value
2022-12-12T00:01:50.590Z,11.80
2022-12-12T00:04:22.454Z,11.53
2022-12-12T00:06:55.550Z,10.10
2022-12-12T00:09:25.733Z,10.10
2022-12-12T00:11:55.700Z,9.37
2022-12-12T00:14:26.877Z,9.43
2022-12-12T00:17:00.441Z,10.00
2022-12-12T00:19:38.640Z,9.83
2022-12-12T00:22:08.793Z,10.40
2022-12-12T00:24:47.036Z,9.97
2022-12-12T00:27:17.643Z,9.33
2022-12-12T00:29:53.855Z,10.37
2022-12-12T00:32:33.600Z,12.13
2022-12-12T00:35:07.025Z,10.40
2022-12-12T00:37:38.354Z,10.23
2022-12-12T00:40:13.584Z,9.33
2022-12-12T00:42:50.826Z,10.03
2022-12-12T00:45:22.142Z,10.07
2022-12-12T00:47:52.971Z,10.90
2022-12-12T00:50:24.366Z,9.23
2022-12-12T00:52:58.971Z,9.97
2022-12-12T00:55:29.582Z,9.23
2022-12-12T00:58:04.572Z,10.63
2022-12-12T01:00:36.757Z,10.97
2022-12-12T01:03:15.707Z,10.60
2022-12-12T01:05:49.621Z,9.43
2022-12-12T01:08:28.829Z,9.27
2022-12-12T01:11:00.675Z,9.27
2022-12-12T01:13:38.944Z,9.13
2022-12-12T01:16:14.251Z,8.30
2022-12-12T01:18:47.508Z,8.03
2022-12-12T01:21:22.478Z,8.60
2022-12-12T01:23:54.219Z,8.77
2022-12-12T01:26:26.496Z,8.40
2022-12-12T01:29:01.010Z,8.77
2022-12-12T01:31:32.017Z,9.07
2022-12-12T01:34:03.845Z,8.73
2022-12-12T01:36:35.239Z,9.20
2022-12-12T01:39:05.900Z,10.23
2022-12-12T01:41:52.943Z,10.60
2022-12-12T01:44:50.799Z,11.00
2022-12-12T01:47:23.757Z,7.97
2022-12-12T01:50:00.974Z,8.33
2022-12-12T01:52:42.822Z,8.57
2022-12-12T01:55:17.068Z,8.40
2022-12-12T01:57:58.074Z,8.93
2022-12-12T02:00:30.159Z,8.87
2022-12-12T02:03:01.407Z,8.50
2022-12-12T02:05:37.804Z,8.03
2022-12-12T02:08:12.288Z,8.93
2022-12-12T02:10:42.104Z,7.87
2022-12-12T02:13:21.365Z,8.73
2022-12-12T02:16:04.317Z,8.93
2022-12-12T02:18:44.644Z,8.07
2022-12-12T02:21:24.934Z,7.97
2022-12-12T02:24:40.877Z,7.37
2022-12-12T02:27:37.117Z,7.20
2022-12-12T02:30:22.139Z,7.43
2022-12-12T02:33:22.515Z,8.10
2022-12-12T02:36:11.213Z,8.27
2022-12-12T02:38:48.695Z,7.73
2022-12-12T02:41:30.151Z,7.83
2022-12-12T02:44:17.331Z,7.10
2022-12-12T02:46:53.734Z,7.83
2022-12-12T02:49:31.733Z,7.83
2022-12-12T02:52:03.200Z,7.47
2022-12-12T02:54:35.483Z,8.63
2022-12-12T02:57:19.255Z,7.83
2022-12-12T02:59:59.427Z,7.97
2022-12-12T03:02:56.294Z,8.77
2022-12-12T03:06:01.372Z,7.30
2022-12-12T03:08:44.829Z,9.30
2022-12-12T03:11:17.949Z,9.87
2022-12-12T03:13:55.047Z,9.17
2022-12-12T03:16:30.453Z,7.17
2022-12-12T03:19:14.118Z,7.93
2022-12-12T03:21:55.548Z,7.03
2022-12-12T03:24:32.843Z,6.97
2022-12-12T03:27:12.076Z,8.10
2022-12-12T03:29:49.226Z,7.30
2022-12-12T03:32:25.470Z,8.27
2022-12-12T03:35:03.324Z,8.13
2022-12-12T03:37:39.730Z,7.73
2022-12-12T03:40:15.314Z,8.37
2022-12-12T03:42:55.856Z,8.40
2022-12-12T03:45:36.485Z,8.33
2022-12-12T03:48:18.506Z,7.57
2022-12-12T03:50:53.872Z,7.30
2022-12-12T03:53:29.941Z,7.27
2022-12-12T03:56:08.131Z,7.70
2022-12-12T03:58:45.550Z,8.53
2022-12-12T04:01:21.992Z,8.53
2022-12-12T04:04:01.023Z,7.53
2022-12-12T04:06:35.987Z,7.10
2022-12-12T04:09:29.897Z,7.43
2022-12-12T04:12:28.560Z,6.97
2022-12-12T04:15:21.743Z,7.27
2022-12-12T04:18:03.624Z,7.70
2022-12-12T04:21:02.445Z,8.37
2022-12-12T04:23:38.610Z,8.10
2022-12-12T04:26:44.796Z,7.37
2022-12-12T04:29:27.635Z,7.60
2022-12-12T04:32:04.426Z,7.57
2022-12-12T04:34:44.591Z,7.37
2022-12-12T04:37:17.772Z,7.93
2022-12-12T04:39:50.125Z,8.83
2022-12-12T04:42:25.680Z,9.60
2022-12-12T04:45:01.526Z,9.83
2022-12-12T04:47:32.788Z,7.07
2022-12-12T04:50:04.174Z,7.37
2022-12-12T04:52:36.317Z,8.67
2022-12-12T04:55:11.037Z,8.07
2022-12-12T04:57:46.032Z,9.20
2022-12-12T05:00:24.373Z,8.77
2022-12-12T05:05:54.163Z,7.70
2022-12-12T05:08:28.440Z,8.27
2022-12-12T05:11:02.114Z,9.67
2022-12-12T05:13:35.959Z,7.93
2022-12-12T05:16:11.668Z,8.30
2022-12-12T05:18:42.279Z,7.87
2022-12-12T05:21:11.880Z,6.60
2022-12-12T05:23:41.854Z,6.80
2022-12-12T05:26:17.743Z,9.57
2022-12-12T05:28:49.381Z,7.47
2022-12-12T05:31:19.739Z,8.03
2022-12-12T05:33:51.296Z,7.67
2022-12-12T05:36:24.955Z,7.93
2022-12-12T05:38:56.816Z,6.80
2022-12-12T05:41:27.769Z,8.33
2022-12-12T05:43:59.949Z,7.07
2022-12-12T05:46:35.565Z,7.00
2022-12-12T05:49:07.906Z,6.90
2022-12-12T05:51:39.822Z,8.07
2022-12-12T05:54:13.512Z,8.40
2022-12-12T05:56:47.614Z,8.23
2022-12-12T05:59:23.158Z,8.03
2022-12-12T06:01:54.544Z,8.70
2022-12-12T06:04:27.859Z,7.43
2022-12-12T06:06:59.887Z,7.53
2022-12-12T06:09:31.110Z,7.50
2022-12-12T06:12:05.829Z,7.10
2022-12-12T06:14:38.630Z,7.83
2022-12-12T06:17:11.653Z,7.80
2022-12-12T06:19:49.195Z,6.77
2022-12-12T06:22:19.355Z,8.23
2022-12-12T06:24:50.929Z,6.57
2022-12-12T06:27:21.551Z,8.03
2022-12-12T06:29:55.018Z,7.83
2022-12-12T06:32:25.612Z,7.50
2022-12-12T06:35:03.231Z,8.07
2022-12-12T06:37:36.503Z,7.90
2022-12-12T06:40:09.403Z,7.30
2022-12-12T06:42:44.793Z,6.43
2022-12-12T06:45:25.338Z,8.70
2022-12-12T06:47:54.978Z,9.13
2022-12-12T06:50:35.912Z,6.87
2022-12-12T06:53:06.420Z,8.17
2022-12-12T06:55:36.072Z,6.40
2022-12-12T06:58:05.366Z,6.80
2022-12-12T07:00:39.356Z,5.93
2022-12-12T07:03:08.705Z,7.67
2022-12-12T07:05:37.958Z,7.30
2022-12-12T07:08:07.863Z,7.20
2022-12-12T07:10:37.800Z,7.73
2022-12-12T07:13:07.102Z,6.97
2022-12-12T07:15:44.373Z,7.23
2022-12-12T07:18:15.335Z,8.30
2022-12-12T07:20:47.509Z,8.17
2022-12-12T07:23:17.552Z,6.73
2022-12-12T07:25:48.471Z,5.93
2022-12-12T07:28:18.540Z,6.77
2022-12-12T07:30:49.809Z,6.67
2022-12-12T07:33:19.767Z,8.83
2022-12-12T07:35:49.036Z,6.20
2022-12-12T07:38:20.630Z,6.53
2022-12-12T07:40:50.967Z,6.33
2022-12-12T07:43:20.175Z,5.50
2022-12-12T07:45:52.268Z,8.30
2022-12-12T07:48:21.469Z,7.23
2022-12-12T07:50:51.521Z,9.23
2022-12-12T07:53:20.735Z,7.73
2022-12-12T07:55:50.150Z,8.50
2022-12-12T07:58:20.070Z,8.23
2022-12-12T08:00:51.154Z,8.10
2022-12-12T08:03:20.355Z,8.43
2022-12-12T08:05:50.311Z,8.27
2022-12-12T08:08:19.914Z,8.23
2022-12-12T08:10:49.544Z,8.27
2022-12-12T08:13:18.787Z,9.87
2022-12-12T08:15:49.686Z,9.17
2022-12-12T08:18:19.123Z,11.57
2022-12-12T08:20:48.351Z,8.63
2022-12-12T08:23:18.072Z,8.37
2022-12-12T08:25:48.012Z,9.03
2022-12-12T08:28:17.764Z,8.17
2022-12-12T08:30:52.039Z,8.07
2022-12-12T08:33:21.889Z,9.57
2022-12-12T08:35:51.133Z,9.33
2022-12-12T08:38:20.658Z,10.67
2022-12-12T08:40:54.142Z,11.73
2022-12-12T08:43:24.779Z,10.23
2022-12-12T08:46:01.855Z,10.23
2022-12-12T08:48:33.382Z,10.27
2022-12-12T08:51:02.938Z,10.23
2022-12-12T08:53:32.494Z,10.13
2022-12-12T08:56:02.037Z,10.80
2022-12-12T08:58:31.301Z,11.43
2022-12-12T09:01:01.931Z,9.40
2022-12-12T09:03:31.494Z,10.03
2022-12-12T09:06:00.908Z,8.83
2022-12-12T09:08:30.874Z,8.63
2022-12-12T09:11:00.603Z,10.40
2022-12-12T09:13:29.803Z,9.33
2022-12-12T09:16:00.212Z,10.93
2022-12-12T09:18:31.264Z,11.67
2022-12-12T09:21:01.176Z,11.87
2022-12-12T09:23:31.511Z,10.73
2022-12-12T09:26:05.324Z,12.40
2022-12-12T09:28:35.334Z,12.33
2022-12-12T09:31:07.287Z,13.07
2022-12-12T09:33:38.959Z,12.77
2022-12-12T09:36:10.919Z,10.50
2022-12-12T09:38:40.485Z,10.37
2022-12-12T09:41:16.627Z,11.87
2022-12-12T09:43:54.917Z,11.43
2022-12-12T09:46:31.687Z,10.80
2022-12-12T09:49:15.705Z,11.90
2022-12-12T09:51:48.482Z,11.20
2022-12-12T09:54:21.314Z,12.00
2022-12-12T09:57:05.775Z,11.73
2022-12-12T09:59:42.247Z,12.57
2022-12-12T10:02:52.632Z,14.13
2022-12-12T10:05:33.046Z,13.93
2022-12-12T10:08:15.274Z,22.77
2022-12-12T10:10:49.076Z,14.70
2022-12-12T10:13:20.614Z,15.93
2022-12-12T10:15:53.857Z,15.97
2022-12-12T10:18:30.133Z,13.10
2022-12-12T10:21:05.167Z,13.47
2022-12-12T10:23:39.924Z,14.63
2022-12-12T10:26:12.978Z,12.40
2022-12-12T10:28:42.176Z,13.23
2022-12-12T10:31:26.290Z,11.40
2022-12-12T10:34:12.961Z,8.77
2022-12-12T10:37:00.571Z,9.77
2022-12-12T10:39:40.792Z,10.40
2022-12-12T10:42:20.803Z,9.93
2022-12-12T10:45:08.222Z,11.73
2022-12-12T10:47:37.603Z,11.63
2022-12-12T10:50:21.323Z,9.20
2022-12-12T10:52:52.076Z,9.67
2022-12-12T10:55:23.937Z,11.57
2022-12-12T10:58:04.062Z,11.47
2022-12-12T11:00:36.156Z,11.37
2022-12-12T11:03:21.369Z,11.97
2022-12-12T11:05:51.524Z,11.17
2022-12-12T11:08:27.260Z,10.30
2022-12-12T11:11:07.128Z,9.60
2022-12-12T11:13:46.686Z,10.67
2022-12-12T11:16:20.579Z,10.00
2022-12-12T11:19:06.176Z,10.67
2022-12-12T11:21:39.478Z,9.67
2022-12-12T11:24:16.843Z,10.67
2022-12-12T11:26:51.552Z,9.10
2022-12-12T11:29:41.694Z,9.30
2022-12-12T11:32:15.754Z,9.97
2022-12-12T11:34:50.445Z,9.10
2022-12-12T11:37:21.966Z,10.27
2022-12-12T11:39:54.530Z,11.03
2022-12-12T11:42:27.920Z,11.17
2022-12-12T11:45:03.255Z,9.27
2022-12-12T11:47:40.772Z,8.73
2022-12-12T11:50:21.559Z,10.40
2022-12-12T11:52:52.886Z,10.43
2022-12-12T11:55:32.908Z,9.00
2022-12-12T11:58:15.614Z,9.20
2022-12-12T12:00:52.730Z,9.80
2022-12-12T12:03:38.341Z,9.17
2022-12-12T12:06:18.925Z,10.07
2022-12-12T12:09:11.292Z,10.57
2022-12-12T12:11:51.402Z,9.77
2022-12-12T12:14:39.191Z,11.33
2022-12-12T12:17:23.650Z,10.43
2022-12-12T12:20:05.235Z,11.67
2022-12-12T12:22:50.249Z,9.67
2022-12-12T12:25:37.996Z,10.47
2022-12-12T12:28:41.323Z,11.83
2022-12-12T12:31:20.001Z,12.73
2022-12-12T12:34:04.014Z,11.27
2022-12-12T12:36:46.544Z,10.23
2022-12-12T12:39:28.773Z,9.80
2022-12-12T12:42:16.243Z,10.80
2022-12-12T12:44:52.646Z,11.47
2022-12-12T12:47:32.290Z,10.73
2022-12-12T12:50:05.801Z,12.10
2022-12-12T12:52:40.845Z,11.63
2022-12-12T12:55:18.305Z,11.00
2022-12-12T12:57:51.947Z,12.43
2022-12-12T13:00:25.691Z,11.20
2022-12-12T13:03:01.129Z,11.10
2022-12-12T13:05:37.199Z,12.53
2022-12-12T13:08:15.570Z,10.73
2022-12-12T13:10:49.198Z,11.73
2022-12-12T13:13:25.215Z,11.03
2022-12-12T13:16:00.466Z,12.23
2022-12-12T13:18:44.487Z,11.67
2022-12-12T13:21:23.143Z,10.63
2022-12-12T13:23:58.889Z,12.73
2022-12-12T13:26:38.376Z,10.63
2022-12-12T13:29:33.717Z,10.53
2022-12-12T13:32:34.715Z,11.80
2022-12-12T13:35:09.162Z,10.63
2022-12-12T13:37:47.362Z,11.53
2022-12-12T13:40:29.403Z,12.30
2022-12-12T13:43:09.165Z,11.70
2022-12-12T13:45:44.807Z,12.03
2022-12-12T13:48:46.865Z,13.70
2022-12-12T13:51:39.883Z,13.27
2022-12-12T13:54:47.310Z,14.30
2022-12-12T13:57:25.026Z,15.70
2022-12-12T14:00:21.028Z,12.67
2022-12-12T14:03:17.247Z,11.80
2022-12-12T14:05:52.161Z,12.60
2022-12-12T14:08:26.755Z,12.73
2022-12-12T14:11:02.852Z,13.10
2022-12-12T14:13:45.840Z,16.07
2022-12-12T14:16:26.734Z,20.37
2022-12-12T14:19:07.402Z,13.87
2022-12-12T14:21:45.746Z,13.57
2022-12-12T14:24:47.849Z,13.00
2022-12-12T14:27:18.692Z,11.07
2022-12-12T14:29:49.253Z,9.90
2022-12-12T14:32:47.181Z,11.00
2022-12-12T14:35:33.360Z,10.60
2022-12-12T14:38:17.812Z,11.03
2022-12-12T14:40:49.258Z,10.43
2022-12-12T14:43:23.415Z,13.07
2022-12-12T14:45:57.919Z,11.60
2022-12-12T14:48:29.116Z,11.73
2022-12-12T14:51:02.744Z,11.13
2022-12-12T14:53:42.300Z,10.57
2022-12-12T14:56:14.538Z,8.60
2022-12-12T14:58:46.952Z,10.13
2022-12-12T15:01:20.001Z,11.20
2022-12-12T15:03:51.958Z,10.93
2022-12-12T15:06:33.952Z,10.93
2022-12-12T15:09:25.949Z,10.50
2022-12-12T15:11:57.529Z,11.03
2022-12-12T15:14:28.412Z,10.13
2022-12-12T15:17:02.732Z,10.93
2022-12-12T15:19:36.016Z,10.13
2022-12-12T15:22:11.169Z,10.37
2022-12-12T15:24:42.480Z,10.57
2022-12-12T15:27:20.825Z,11.00
2022-12-12T15:29:50.325Z,10.43
2022-12-12T15:32:22.728Z,9.87
2022-12-12T15:35:02.812Z,9.33
2022-12-12T15:37:33.305Z,9.93
2022-12-12T15:40:19.985Z,10.20
2022-12-12T15:42:54.172Z,9.13
2022-12-12T15:45:33.417Z,9.03
2022-12-12T15:48:03.451Z,8.13
2022-12-12T15:50:48.010Z,10.53
2022-12-12T15:53:22.688Z,9.33
2022-12-12T15:55:59.151Z,9.57
2022-12-12T15:58:32.354Z,9.27
2022-12-12T16:01:08.490Z,8.97
2022-12-12T16:03:58.389Z,9.60
2022-12-12T16:06:29.267Z,9.90
2022-12-12T16:09:08.823Z,11.90
2022-12-12T16:11:42.580Z,10.70
2022-12-12T16:14:39.509Z,11.30
2022-12-12T16:17:13.310Z,11.33
2022-12-12T16:19:49.090Z,14.10
2022-12-12T16:22:34.991Z,14.80
2022-12-12T16:25:29.400Z,11.20
2022-12-12T16:28:03.345Z,11.67
2022-12-12T16:30:32.758Z,8.97
2022-12-12T16:33:13.550Z,11.57
2022-12-12T16:35:42.778Z,9.07
2022-12-12T16:38:15.735Z,12.43
2022-12-12T16:40:46.203Z,12.67
2022-12-12T16:43:20.285Z,14.07
2022-12-12T16:45:51.332Z,11.97
2022-12-12T16:48:23.689Z,9.27
2022-12-12T16:50:57.355Z,9.90
2022-12-12T16:53:27.192Z,11.20
2022-12-12T16:55:57.095Z,12.47
2022-12-12T16:58:27.892Z,12.63
2022-12-12T17:00:59.172Z,11.97
2022-12-12T17:03:29.894Z,12.83
2022-12-12T17:05:59.460Z,12.07
2022-12-12T17:08:28.938Z,10.30
2022-12-12T17:11:10.132Z,10.83
2022-12-12T17:13:47.881Z,10.40
2022-12-12T17:16:20.302Z,10.97
2022-12-12T17:18:52.117Z,11.37
2022-12-12T17:21:21.603Z,11.80
2022-12-12T17:23:50.755Z,11.07
2022-12-12T17:26:20.109Z,11.80
2022-12-12T17:28:50.764Z,9.97
2022-12-12T17:31:20.338Z,14.07
2022-12-12T17:33:51.257Z,11.03
2022-12-12T17:36:21.108Z,10.90
2022-12-12T17:38:50.828Z,11.07
2022-12-12T17:41:20.359Z,11.30
2022-12-12T17:43:55.396Z,10.30
2022-12-12T17:46:27.775Z,9.30
2022-12-12T17:48:58.352Z,8.43
2022-12-12T17:51:27.777Z,10.37
2022-12-12T17:53:59.703Z,12.57
2022-12-12T17:56:29.472Z,10.40
2022-12-12T17:59:00.060Z,13.07
2022-12-12T18:01:31.446Z,11.60
2022-12-12T18:04:02.477Z,11.97
2022-12-12T18:06:34.224Z,10.00
2022-12-12T18:09:05.107Z,10.40
2022-12-12T18:11:38.938Z,9.83
2022-12-12T18:14:15.331Z,11.03
2022-12-12T18:16:47.938Z,10.83
2022-12-12T18:19:21.771Z,9.27
2022-12-12T18:22:03.036Z,13.10
2022-12-12T18:24:35.708Z,12.03
2022-12-12T18:27:06.606Z,12.37
2022-12-12T18:29:39.167Z,13.10
2022-12-12T18:32:11.182Z,13.63
2022-12-12T18:34:45.179Z,12.67
2022-12-12T18:37:20.851Z,12.10
2022-12-12T18:39:54.307Z,9.77
2022-12-12T18:42:28.238Z,11.20
2022-12-12T18:45:09.181Z,10.80
2022-12-12T18:47:40.330Z,10.87
2022-12-12T18:50:10.343Z,9.27
2022-12-12T18:52:41.265Z,11.33
2022-12-12T18:55:11.694Z,9.70
2022-12-12T18:57:43.555Z,10.70
2022-12-12T19:00:18.795Z,9.53
2022-12-12T19:02:48.367Z,12.43
2022-12-12T19:05:20.975Z,10.27
2022-12-12T19:07:53.742Z,9.87
2022-12-12T19:10:24.789Z,10.80
2022-12-12T19:12:55.014Z,9.70
2022-12-12T19:15:29.007Z,8.33
2022-12-12T19:18:10.302Z,11.47
2022-12-12T19:20:54.217Z,9.50
2022-12-12T19:23:23.674Z,10.33
2022-12-12T19:25:55.937Z,11.47
2022-12-12T19:28:25.460Z,15.17
2022-12-12T19:30:58.587Z,13.60
2022-12-12T19:33:28.790Z,13.33
2022-12-12T19:35:58.979Z,13.73
2022-12-12T19:38:29.968Z,13.47
2022-12-12T19:41:04.939Z,13.20
2022-12-12T19:43:36.721Z,10.33
2022-12-12T19:46:20.330Z,11.63
2022-12-12T19:48:54.450Z,11.73
2022-12-12T19:51:26.002Z,13.37
2022-12-12T19:53:57.963Z,11.63
2022-12-12T19:56:30.171Z,11.10
2022-12-12T19:59:02.371Z,10.73
2022-12-12T20:01:35.263Z,9.43
2022-12-12T20:04:06.668Z,11.40
2022-12-12T20:06:41.283Z,12.23
2022-12-12T20:09:12.416Z,11.93
2022-12-12T20:11:43.302Z,18.00
2022-12-12T20:14:16.165Z,12.13
2022-12-12T20:16:48.149Z,11.50
2022-12-12T20:19:18.497Z,10.80
2022-12-12T20:22:04.808Z,12.07
2022-12-12T20:24:37.050Z,9.73
2022-12-12T20:27:09.624Z,12.00
2022-12-12T20:29:40.569Z,14.00
2022-12-12T20:32:16.116Z,13.20
2022-12-12T20:34:47.797Z,10.13
2022-12-12T20:37:20.325Z,10.73
2022-12-12T20:39:53.686Z,10.50
2022-12-12T20:42:23.420Z,15.87
2022-12-12T20:44:52.744Z,16.87
2022-12-12T20:47:24.068Z,15.47
2022-12-12T20:49:54.753Z,20.43
2022-12-12T20:52:29.135Z,20.17
2022-12-12T20:55:02.038Z,15.10
2022-12-12T20:57:32.419Z,10.97
2022-12-12T21:00:03.738Z,13.87
2022-12-12T21:02:35.340Z,11.83
2022-12-12T21:05:08.836Z,12.97
2022-12-12T21:07:44.702Z,12.37
2022-12-12T21:10:14.476Z,10.83
2022-12-12T21:12:44.453Z,10.80
2022-12-12T21:15:13.705Z,11.80
2022-12-12T21:17:46.410Z,9.83
2022-12-12T21:20:16.344Z,11.70
2022-12-12T21:22:47.105Z,11.70
2022-12-12T21:25:17.330Z,11.00
2022-12-12T21:27:47.024Z,10.00
2022-12-12T21:30:17.202Z,12.07
2022-12-12T21:32:49.796Z,10.90
2022-12-12T21:35:20.227Z,11.20
2022-12-12T21:37:52.453Z,10.00
2022-12-12T21:40:23.146Z,9.70
2022-12-12T21:42:56.650Z,8.27
2022-12-12T21:45:27.685Z,11.40
2022-12-12T21:47:59.655Z,13.37
2022-12-12T21:50:31.038Z,12.47
2022-12-12T21:53:29.588Z,12.03
2022-12-12T21:56:04.130Z,11.03
2022-12-12T21:58:34.866Z,14.00
2022-12-12T22:01:16.689Z,14.70
2022-12-12T22:03:51.268Z,14.60
2022-12-12T22:06:24.313Z,13.47
2022-12-12T22:08:56.633Z,12.80
2022-12-12T22:11:41.368Z,12.07
2022-12-12T22:14:21.395Z,11.33
2022-12-12T22:16:53.547Z,12.27
2022-12-12T22:19:24.500Z,12.67
2022-12-12T22:21:53.815Z,14.30
2022-12-12T22:24:29.717Z,11.33
2022-12-12T22:26:59.778Z,13.73
2022-12-12T22:29:31.171Z,11.90
2022-12-12T22:32:03.917Z,15.43
2022-12-12T22:34:36.439Z,16.57
2022-12-12T22:37:05.926Z,15.60
2022-12-12T22:39:37.549Z,13.87
2022-12-12T22:42:08.520Z,16.53
2022-12-12T22:44:39.624Z,10.77
2022-12-12T22:47:11.643Z,13.90
2022-12-12T22:49:57.919Z,16.80
2022-12-12T22:52:29.772Z,16.60
2022-12-12T22:55:02.164Z,14.97
2022-12-12T22:57:34.398Z,14.70
2022-12-12T23:00:10.515Z,17.53
2022-12-12T23:02:41.984Z,18.70
2022-12-12T23:05:14.157Z,15.57
2022-12-12T23:07:44.444Z,15.37
2022-12-12T23:10:14.560Z,18.70
2022-12-12T23:12:44.711Z,18.97
2022-12-12T23:15:14.443Z,19.73
2022-12-12T23:17:43.831Z,19.63
2022-12-12T23:20:14.479Z,19.37
2022-12-12T23:22:46.384Z,22.83
2022-12-12T23:25:15.983Z,20.83
2022-12-12T23:27:45.371Z,23.83
2022-12-12T23:30:14.937Z,20.87
2022-12-12T23:32:44.159Z,19.63
2022-12-12T23:35:14.870Z,19.20
2022-12-12T23:37:44.228Z,19.67
2022-12-12T23:40:13.730Z,22.03
2022-12-12T23:42:42.868Z,19.50
2022-12-12T23:45:12.619Z,21.70
2022-12-12T23:47:42.141Z,20.13
2022-12-12T23:50:12.882Z,17.47
2022-12-12T23:52:42.075Z,22.47
2022-12-12T23:55:11.667Z,19.63
2022-12-12T23:57:41.406Z,19.53
